Time;durP1;ratioP1;P1;durP2;ratioP2;P2;SDS_P1;SDS_P2;PMS_P1;PMS_P2;Temp;Humidity;BMP_temperature;BMP_pressure;BME280_temperature;BME280_humidity;BME280_pressure;Samples;Min_cycle;Max_cycle;Signal;HPM_P1;HPM_P2
2023/03/31 00:00:11;;;;;;;33.38;5.88;;;12.90;99.90;;;;;;5049634;28;20051;-88
2023/03/31 00:02:40;;;;;;;31.98;6.07;;;10.10;99.90;;;;;;5050433;28;20051;-86
2023/03/31 00:05:07;;;;;;;32.05;5.07;;;9.50;99.90;;;;;;5049858;28;20530;-88
2023/03/31 00:07:36;;;;;;;42.38;7.55;;;;;;;;;;5050081;28;20048;-88
2023/03/31 00:10:04;;;;;;;33.80;5.55;;;10.10;99.90;;;;;;5050075;28;20135;-88
2023/03/31 00:12:33;;;;;;;33.92;6.45;;;10.10;99.90;;;;;;5066761;28;20040;-88
2023/03/31 00:14:59;;;;;;;43.30;6.55;;;10.70;99.90;;;;;;5049386;28;20068;-88
2023/03/31 00:17:25;;;;;;;38.92;6.45;;;10.20;99.90;;;;;;5050653;28;20463;-87
2023/03/31 00:20:09;;;;;;;;;;;;;;;;;;;;;
2023/03/31 00:22:37;;;;;;;28.15;6.10;;;10.20;99.90;;;;;;5067288;28;20053;-88
2023/03/31 00:25:04;;;;;;;32.15;5.80;;;12.60;99.90;;;;;;5033655;28;20048;-86
2023/03/31 00:27:33;;;;;;;32.90;6.28;;;;;;;;;;5066397;28;20054;-88
2023/03/31 00:30:03;;;;;;;38.13;6.03;;;10.10;99.90;;;;;;5068470;28;20032;-87
2023/03/31 00:32:35;;;;;;;34.63;7.53;;;10.30;99.90;;;;;;5050028;28;20041;-88
2023/03/31 00:35:01;;;;;;;34.10;5.60;;;;;;;;;;5060058;28;20032;-88
2023/03/31 00:37:28;;;;;;;28.52;5.68;;;10.00;99.90;;;;;;5066860;28;20127;-88
2023/03/31 00:39:54;;;;;;;37.03;6.13;;;10.00;99.90;;;;;;5049963;28;20033;-88
2023/03/31 00:42:21;;;;;;;26.10;5.20;;;12.50;99.90;;;;;;5065696;28;20053;-88
2023/03/31 00:45:26;;;;;;;36.85;6.28;;;10.10;99.90;;;;;;5033327;28;20404;-88
2023/03/31 00:48:03;;;;;;;37.88;6.00;;;10.70;99.90;;;;;;5066023;28;20048;-88
2023/03/31 00:50:34;;;;;;;25.48;4.75;;;9.90;99.90;;;;;;5066657;28;20045;-89
2023/03/31 00:53:07;;;;;;;28.77;5.32;;;9.90;99.90;;;;;;5060419;28;20109;-88
2023/03/31 00:55:37;;;;;;;31.65;5.65;;;10.50;99.90;;;;;;5066387;28;20193;-89
2023/03/31 00:58:05;;;;;;;33.00;5.63;;;11.30;99.90;;;;;;5050654;28;20102;-88
2023/03/31 01:00:31;;;;;;;22.48;5.53;;;12.40;99.90;;;;;;5070524;28;20047;-89
2023/03/31 01:03:02;;;;;;;29.30;5.43;;;9.90;99.90;;;;;;5069452;28;20032;-90
2023/03/31 01:05:46;;;;;;;24.58;4.90;;;11.30;99.90;;;;;;5070450;28;20504;-89
2023/03/31 01:08:13;;;;;;;32.03;5.47;;;9.80;99.90;;;;;;5065172;28;20036;-89
2023/03/31 01:10:52;;;;;;;27.35;5.35;;;10.30;99.90;;;;;;5069449;28;20036;-89
2023/03/31 01:13:21;;;;;;;29.15;5.22;;;;;;;;;;5069818;28;20129;-90
2023/03/31 01:15:47;;;;;;;27.73;5.00;;;;;;;;;;5070611;28;20477;-88
2023/03/31 01:18:15;;;;;;;29.17;5.40;;;9.70;99.90;;;;;;5069626;28;20040;-88
2023/03/31 01:21:02;;;;;;;29.58;5.18;;;11.80;99.90;;;;;;5070535;28;20057;-88
2023/03/31 01:23:55;;;;;;;28.00;5.97;;;11.80;99.90;;;;;;5070688;28;20510;-86
2023/03/31 01:26:37;;;;;;;24.58;5.35;;;9.20;99.90;;;;;;5052574;28;20357;-88
2023/03/31 01:29:58;;;;;;;26.60;4.97;;;10.00;99.90;;;;;;5062361;28;20317;-87
2023/03/31 01:32:48;;;;;;;32.72;5.38;;;7.90;99.90;;;;;;5053685;28;20056;-88
2023/03/31 01:35:29;;;;;;;21.02;5.28;;;9.50;99.90;;;;;;5063323;28;20050;-87
2023/03/31 01:38:14;;;;;;;28.50;5.47;;;9.50;99.90;;;;;;5071493;28;20119;-90
2023/03/31 01:41:15;;;;;;;22.88;4.63;;;9.50;99.90;;;;;;5053107;28;20492;-89
2023/03/31 01:43:47;;;;;;;32.60;5.82;;;9.40;99.90;;;;;;5031338;28;20197;-87
2023/03/31 01:46:31;;;;;;;32.17;4.93;;;9.40;99.90;;;;;;5051576;28;20515;-88
2023/03/31 01:49:24;;;;;;;31.77;6.22;;;9.40;99.90;;;;;;5069310;28;20086;-88
2023/03/31 01:51:59;;;;;;;24.98;4.57;;;9.40;99.90;;;;;;5068681;28;20656;-88
2023/03/31 01:54:49;;;;;;;30.10;5.25;;;9.40;99.90;;;;;;5069240;28;20047;-90
2023/03/31 01:57:49;;;;;;;20.52;4.18;;;9.40;99.90;;;;;;5063146;28;20055;-87
2023/03/31 02:00:25;;;;;;;27.40;4.18;;;9.30;99.90;;;;;;5062348;28;20122;-88
2023/03/31 02:03:13;;;;;;;26.73;4.15;;;9.30;99.90;;;;;;5069771;28;20041;-88
2023/03/31 02:05:55;;;;;;;23.88;4.78;;;9.20;99.90;;;;;;5069027;28;20055;-88
2023/03/31 02:08:36;;;;;;;24.30;4.88;;;9.30;99.90;;;;;;5052461;28;20044;-88
2023/03/31 02:11:03;;;;;;;29.77;5.07;;;9.30;99.90;;;;;;5027944;28;20103;-88
2023/03/31 02:13:33;;;;;;;29.65;5.20;;;8.00;99.90;;;;;;5051857;28;20041;-88
2023/03/31 02:16:04;;;;;;;24.13;5.35;;;9.30;99.90;;;;;;5036155;28;20515;-88
2023/03/31 02:18:37;;;;;;;26.88;4.20;;;;;;;;;;5054934;28;20044;-87
2023/03/31 02:21:04;;;;;;;23.58;4.88;;;9.20;99.90;;;;;;5049363;28;20040;-87
2023/03/31 02:23:31;;;;;;;23.38;3.88;;;8.20;99.90;;;;;;5071331;28;20076;-88
2023/03/31 02:26:18;;;;;;;30.15;4.53;;;9.20;99.90;;;;;;5068578;28;20115;-88
2023/03/31 02:28:44;;;;;;;21.52;4.25;;;10.70;99.90;;;;;;5068356;28;20127;-88
2023/03/31 02:31:13;;;;;;;29.70;4.45;;;9.60;99.90;;;;;;5034452;28;20520;-89
2023/03/31 02:33:39;;;;;;;32.78;5.43;;;;;;;;;;5068142;28;20112;-88
2023/03/31 02:36:06;;;;;;;18.90;3.80;;;9.30;99.90;;;;;;5051218;28;20037;-87
2023/03/31 02:38:37;;;;;;;18.30;3.60;;;9.20;99.90;;;;;;5068667;28;20484;-88
2023/03/31 02:41:02;;;;;;;26.00;4.35;;;9.60;99.90;;;;;;5058911;28;20488;-87
2023/03/31 02:43:28;;;;;;;17.70;3.80;;;8.50;99.90;;;;;;5068197;28;20036;-87
2023/03/31 02:45:54;;;;;;;14.32;3.38;;;9.40;99.90;;;;;;5051319;28;20518;-87
2023/03/31 02:48:31;;;;;;;25.42;4.40;;;9.80;99.90;;;;;;5050854;28;20044;-88
2023/03/31 02:51:06;;;;;;;23.25;4.38;;;9.60;99.90;;;;;;5067665;28;20041;-87
2023/03/31 02:53:31;;;;;;;;;;;12.20;99.90;;;;;;5070094;28;20051;-87
2023/03/31 02:56:15;;;;;;;21.75;3.17;;;12.30;99.90;;;;;;5067574;28;19920;-87
2023/03/31 02:59:02;;;;;;;20.33;4.20;;;9.30;99.90;;;;;;5067923;28;20051;-88
2023/03/31 03:01:54;;;;;;;20.88;3.33;;;9.40;99.90;;;;;;5068847;28;20040;-88
2023/03/31 03:04:26;;;;;;;21.52;3.90;;;9.30;99.90;;;;;;5036081;28;20189;-88
2023/03/31 03:07:02;;;;;;;19.98;5.00;;;7.30;99.90;;;;;;5068418;28;20116;-88
2023/03/31 03:09:55;;;;;;;28.35;4.53;;;8.70;99.90;;;;;;5068824;28;20309;-88
2023/03/31 03:13:09;;;;;;;27.02;3.35;;;8.30;99.90;;;;;;5063225;28;20439;-88
2023/03/31 03:15:45;;;;;;;18.80;3.85;;;7.80;99.90;;;;;;5058221;28;20059;-88
2023/03/31 03:18:11;;;;;;;25.73;4.50;;;9.30;99.90;;;;;;5061994;28;20531;-87
2023/03/31 03:20:38;;;;;;;14.52;3.75;;;9.40;99.90;;;;;;5051085;28;20049;-87
2023/03/31 03:23:03;;;;;;;19.52;3.63;;;9.40;99.90;;;;;;5050634;28;20121;-87
2023/03/31 03:25:29;;;;;;;21.13;3.92;;;;;;;;;;5069822;28;20036;-88
2023/03/31 03:27:55;;;;;;;28.08;4.63;;;9.40;99.90;;;;;;5050623;28;20130;-88
2023/03/31 03:30:21;;;;;;;23.77;5.25;;;11.40;99.90;;;;;;5066789;28;20060;-87
2023/03/31 03:32:47;;;;;;;29.88;4.40;;;9.50;99.90;;;;;;5069022;28;20446;-87
2023/03/31 03:35:13;;;;;;;13.90;3.03;;;8.20;99.90;;;;;;5066831;28;20474;-88
2023/03/31 03:37:38;;;;;;;17.00;3.13;;;9.40;99.90;;;;;;5050115;28;20067;-88
2023/03/31 03:40:05;;;;;;;14.18;3.42;;;9.40;99.90;;;;;;5050102;28;20037;-88
2023/03/31 03:42:35;;;;;;;14.27;3.65;;;9.30;99.90;;;;;;5034366;28;20446;-88
2023/03/31 03:45:01;;;;;;;19.05;3.70;;;9.30;99.90;;;;;;5049536;28;20044;-87
2023/03/31 03:47:27;;;;;;;21.27;4.68;;;11.60;99.90;;;;;;5067073;28;20045;-87
2023/03/31 03:49:53;;;;;;;20.42;3.33;;;11.80;99.90;;;;;;5050368;28;20135;-88
2023/03/31 03:52:19;;;;;;;19.65;3.63;;;8.20;99.90;;;;;;5066296;28;20127;-88
2023/03/31 03:54:45;;;;;;;16.67;3.55;;;11.10;99.90;;;;;;5067105;28;20047;-88
2023/03/31 03:57:11;;;;;;;19.77;3.17;;;9.60;99.90;;;;;;5068015;28;20048;-88
2023/03/31 03:59:37;;;;;;;17.77;2.90;;;;;;;;;;5066602;28;20541;-87
2023/03/31 04:02:03;;;;;;;19.15;3.92;;;9.40;99.90;;;;;;5059534;28;20045;-87
2023/03/31 04:04:28;;;;;;;20.23;4.20;;;8.10;99.90;;;;;;5068334;28;20048;-87
2023/03/31 04:06:54;;;;;;;19.27;4.35;;;11.90;99.90;;;;;;5067482;28;20044;-87
2023/03/31 04:09:20;;;;;;;15.85;3.00;;;;;;;;;;5049838;28;20440;-87
2023/03/31 04:11:46;;;;;;;14.65;3.72;;;;;;;;;;5049689;28;20437;-86
2023/03/31 04:14:12;;;;;;;11.68;4.00;;;9.40;99.90;;;;;;5065413;28;20148;-88
2023/03/31 04:16:41;;;;;;;15.90;3.22;;;9.40;99.90;;;;;;5050395;28;20076;-87
2023/03/31 04:19:07;;;;;;;16.98;3.80;;;11.90;99.90;;;;;;5065997;28;20060;-88
2023/03/31 04:21:35;;;;;;;11.27;2.95;;;11.10;99.90;;;;;;5066843;28;20048;-88
2023/03/31 04:24:03;;;;;;;12.43;3.58;;;;;;;;;;5050102;28;20370;-87
2023/03/31 04:26:41;;;;;;;12.85;3.83;;;9.30;99.90;;;;;;5067833;28;20095;-89
2023/03/31 04:29:11;;;;;;;17.58;5.13;;;9.60;99.90;;;;;;5042028;28;20094;-87
2023/03/31 04:31:41;;;;;;;13.15;3.65;;;9.50;99.90;;;;;;5066482;28;20139;-88
2023/03/31 04:34:11;;;;;;;10.40;4.40;;;9.40;99.90;;;;;;5059894;28;20127;-88
2023/03/31 04:36:41;;;;;;;15.70;4.70;;;9.90;99.90;;;;;;5054220;28;20454;-88
2023/03/31 04:39:09;;;;;;;13.43;4.93;;;;;;;;;;5046112;28;20041;-87
2023/03/31 04:41:35;;;;;;;17.35;5.85;;;9.50;99.90;;;;;;5069958;28;20064;-86
2023/03/31 04:44:01;;;;;;;13.35;4.85;;;9.40;99.90;;;;;;5072146;28;20044;-86
2023/03/31 04:46:27;;;;;;;9.32;3.83;;;9.90;99.90;;;;;;5071587;28;20094;-88
2023/03/31 04:48:53;;;;;;;16.73;5.03;;;;;;;;;;5053130;28;20037;-88
2023/03/31 04:51:19;;;;;;;14.85;5.15;;;;;;;;;;5054013;28;20079;-86
2023/03/31 04:53:45;;;;;;;11.05;4.90;;;9.50;99.90;;;;;;5053847;28;20062;-87
2023/03/31 04:56:12;;;;;;;11.80;5.22;;;12.00;99.90;;;;;;5052631;28;20370;-87
2023/03/31 04:58:38;;;;;;;14.52;5.28;;;;;;;;;;5070627;28;20503;-86
2023/03/31 05:01:07;;;;;;;13.48;5.00;;;9.50;99.90;;;;;;5068647;28;20691;-86
2023/03/31 05:03:33;;;;;;;14.32;5.22;;;9.90;99.90;;;;;;5054026;28;20041;-87
2023/03/31 05:05:59;;;;;;;12.43;4.72;;;9.90;99.90;;;;;;5070875;28;20480;-87
2023/03/31 05:08:26;;;;;;;15.15;4.95;;;10.90;99.90;;;;;;5052549;28;20110;-90
2023/03/31 05:10:52;;;;;;;14.38;5.40;;;12.10;99.90;;;;;;5069531;28;20040;-88
2023/03/31 05:13:17;;;;;;;16.33;5.97;;;11.10;99.90;;;;;;5069430;28;20044;-90
2023/03/31 05:15:44;;;;;;;10.82;5.60;;;11.10;99.90;;;;;;5070736;28;20040;-89
2023/03/31 05:18:10;;;;;;;18.13;5.40;;;9.50;99.90;;;;;;5069718;28;20037;-88
2023/03/31 05:20:36;;;;;;;19.27;5.70;;;12.00;99.90;;;;;;5052993;28;20048;-87
2023/03/31 05:23:02;;;;;;;16.70;4.72;;;10.10;99.90;;;;;;5070794;28;20044;-88
2023/03/31 05:25:31;;;;;;;11.82;5.22;;;10.50;99.90;;;;;;5069611;28;20131;-90
2023/03/31 05:27:57;;;;;;;15.70;6.55;;;12.20;99.90;;;;;;5053420;28;20033;-89
2023/03/31 05:30:25;;;;;;;12.80;5.07;;;12.20;99.90;;;;;;5068403;28;20056;-87
2023/03/31 05:32:51;;;;;;;13.15;4.70;;;9.60;99.90;;;;;;5071061;28;20062;-89
2023/03/31 05:35:16;;;;;;;15.48;5.10;;;9.50;99.90;;;;;;5068985;28;20037;-88
2023/03/31 05:37:42;;;;;;;10.07;4.57;;;9.60;99.90;;;;;;5069111;28;20039;-90
2023/03/31 05:40:09;;;;;;;17.98;5.05;;;10.50;99.90;;;;;;5068777;28;20045;-87
2023/03/31 05:42:35;;;;;;;13.80;4.78;;;9.60;99.90;;;;;;5069329;28;20106;-90
2023/03/31 05:45:01;;;;;;;12.88;4.05;;;11.70;99.90;;;;;;5050943;28;20057;-89
2023/03/31 05:47:26;;;;;;;15.65;4.35;;;10.20;99.90;;;;;;5068832;28;20132;-89
2023/03/31 05:49:52;;;;;;;9.52;4.55;;;11.90;99.90;;;;;;5052776;28;20090;-89
2023/03/31 05:52:18;;;;;;;14.27;4.13;;;10.00;99.90;;;;;;5069843;28;20484;-89
2023/03/31 05:54:44;;;;;;;15.23;4.38;;;9.60;99.90;;;;;;5070385;28;20048;-87
2023/03/31 05:57:10;;;;;;;8.75;3.85;;;11.90;99.90;;;;;;5068393;28;20045;-90
2023/03/31 05:59:37;;;;;;;9.75;3.80;;;11.80;99.90;;;;;;5069886;28;20036;-88
2023/03/31 06:02:03;;;;;;;12.52;4.00;;;11.90;99.90;;;;;;5068578;28;20047;-85
2023/03/31 06:04:31;;;;;;;11.25;3.70;;;10.50;99.90;;;;;;5068260;28;20044;-88
2023/03/31 06:06:57;;;;;;;8.70;2.88;;;10.10;99.90;;;;;;5051808;28;20051;-86
2023/03/31 06:09:23;;;;;;;11.35;4.15;;;9.60;99.90;;;;;;5069876;28;20036;-87
2023/03/31 06:11:49;;;;;;;7.80;3.20;;;9.80;99.90;;;;;;5067920;28;20037;-87
2023/03/31 06:14:14;;;;;;;11.48;3.95;;;9.60;99.90;;;;;;5068066;28;20480;-87
2023/03/31 06:16:40;;;;;;;10.52;3.40;;;11.90;99.90;;;;;;5069398;28;20431;-86
2023/03/31 06:19:06;;;;;;;9.50;3.13;;;9.60;99.90;;;;;;5068872;28;20048;-85
2023/03/31 06:21:32;;;;;;;12.70;3.80;;;12.00;99.90;;;;;;5069495;28;20040;-85
2023/03/31 06:23:59;;;;;;;8.10;3.47;;;11.60;99.90;;;;;;5051663;28;20136;-84
2023/03/31 06:26:25;;;;;;;7.63;3.00;;;9.50;99.90;;;;;;5065868;28;20064;-90
2023/03/31 06:28:51;;;;;;;7.07;3.40;;;11.60;99.90;;;;;;5066752;28;20071;-88
2023/03/31 06:31:19;;;;;;;9.43;3.00;;;9.60;99.90;;;;;;5061745;28;20539;-85
2023/03/31 06:33:45;;;;;;;8.00;3.40;;;10.20;99.90;;;;;;5065917;28;20052;-85
2023/03/31 06:36:13;;;;;;;5.15;2.70;;;9.70;99.90;;;;;;5063529;28;20052;-85
2023/03/31 06:38:39;;;;;;;6.88;3.10;;;10.30;99.90;;;;;;5096181;28;20481;-85
2023/03/31 06:41:06;;;;;;;8.52;2.70;;;9.60;99.90;;;;;;5048793;28;20049;-88
2023/03/31 06:43:32;;;;;;;8.93;2.97;;;9.60;99.90;;;;;;5064883;28;20044;-84
2023/03/31 06:45:58;;;;;;;5.20;2.67;;;11.60;99.90;;;;;;5068651;28;20051;-84
2023/03/31 06:48:24;;;;;;;8.25;2.35;;;10.10;99.90;;;;;;5068509;28;20416;-84
2023/03/31 06:50:50;;;;;;;6.68;2.15;;;9.60;99.90;;;;;;5069021;28;20037;-84
2023/03/31 06:53:16;;;;;;;7.93;3.00;;;9.60;99.90;;;;;;5068634;28;20052;-84
2023/03/31 06:55:41;;;;;;;9.40;2.50;;;9.50;99.90;;;;;;5046038;28;20123;-84
2023/03/31 06:58:07;;;;;;;6.47;2.30;;;9.60;99.90;;;;;;5064162;28;20061;-84
2023/03/31 07:00:33;;;;;;;9.48;2.78;;;9.60;99.90;;;;;;5049756;28;20052;-85
2023/03/31 07:03:00;;;;;;;8.27;2.50;;;11.30;99.90;;;;;;5049329;28;20053;-85
2023/03/31 07:05:27;;;;;;;6.05;2.80;;;11.80;99.90;;;;;;5049908;28;20140;-85
2023/03/31 07:07:54;;;;;;;6.53;2.75;;;9.40;99.90;;;;;;5062529;28;20349;-84
2023/03/31 07:10:20;;;;;;;6.90;3.20;;;11.40;99.90;;;;;;5057276;28;20060;-85
2023/03/31 07:12:45;;;;;;;7.88;2.80;;;10.80;99.90;;;;;;5069020;28;20413;-84
2023/03/31 07:15:11;;;;;;;5.57;2.42;;;9.60;99.90;;;;;;5063972;28;20033;-85
2023/03/31 07:17:40;;;;;;;7.30;2.45;;;9.60;99.90;;;;;;5044488;28;20109;-85
2023/03/31 07:20:16;;;;;;;6.18;2.80;;;12.10;99.90;;;;;;5065215;28;20040;-84
2023/03/31 07:22:46;;;;;;;5.32;2.42;;;9.60;99.90;;;;;;5068041;28;20102;-85
2023/03/31 07:25:15;;;;;;;9.15;2.90;;;9.60;99.90;;;;;;5061959;28;20082;-85
2023/03/31 07:27:41;;;;;;;10.00;3.58;;;12.20;99.90;;;;;;5059956;28;20045;-85
2023/03/31 07:30:10;;;;;;;6.63;2.78;;;9.60;99.90;;;;;;5061452;28;20037;-85
2023/03/31 07:32:40;;;;;;;6.07;2.90;;;9.60;99.90;;;;;;5050553;28;20488;-85
2023/03/31 07:35:06;;;;;;;7.05;2.85;;;9.60;99.90;;;;;;5062016;28;20051;-85
2023/03/31 07:37:36;;;;;;;7.70;3.00;;;9.60;99.90;;;;;;5064876;28;20420;-84
2023/03/31 07:40:04;;;;;;;5.28;2.65;;;10.30;99.90;;;;;;5048380;28;20333;-84
2023/03/31 07:42:30;;;;;;;4.13;2.60;;;9.60;99.90;;;;;;5066213;28;20475;-84
2023/03/31 07:44:56;;;;;;;8.25;2.60;;;10.00;99.90;;;;;;5047859;28;20041;-84
2023/03/31 07:47:23;;;;;;;6.05;2.70;;;9.60;99.90;;;;;;5066918;28;20128;-84
2023/03/31 07:49:49;;;;;;;6.82;3.00;;;9.70;99.90;;;;;;5060308;28;20443;-84
2023/03/31 07:52:15;;;;;;;7.03;2.17;;;9.70;99.90;;;;;;5054591;28;20040;-84
2023/03/31 07:54:41;;;;;;;9.40;2.42;;;9.60;99.90;;;;;;5066790;28;20040;-85
2023/03/31 07:57:07;;;;;;;5.88;2.45;;;12.00;99.90;;;;;;5065473;28;20127;-86
2023/03/31 07:59:33;;;;;;;6.57;2.33;;;11.60;99.90;;;;;;5048971;28;20052;-83
2023/03/31 08:01:59;;;;;;;5.30;2.13;;;11.20;99.90;;;;;;5063797;28;20166;-83
2023/03/31 08:04:27;;;;;;;10.65;2.78;;;11.00;99.90;;;;;;5048361;28;20039;-84
2023/03/31 08:06:53;;;;;;;7.25;3.25;;;11.60;99.90;;;;;;5062811;28;20049;-85
2023/03/31 08:09:21;;;;;;;8.30;2.72;;;9.70;99.90;;;;;;5046953;28;20436;-86
2023/03/31 08:11:47;;;;;;;4.10;2.25;;;9.70;99.90;;;;;;5069348;28;20041;-85
2023/03/31 08:14:12;;;;;;;5.25;3.05;;;9.70;99.90;;;;;;5053916;28;20403;-85
2023/03/31 08:16:40;;;;;;;7.32;4.28;;;10.80;99.90;;;;;;5046875;28;20121;-85
2023/03/31 08:19:09;;;;;;;6.05;2.30;;;11.50;99.90;;;;;;5051856;28;20047;-85
2023/03/31 08:21:35;;;;;;;8.68;3.38;;;;;;;;;;5080502;28;20454;-85
2023/03/31 08:24:01;;;;;;;7.63;2.03;;;;;;;;;;5052098;28;20123;-85
2023/03/31 08:26:28;;;;;;;6.05;2.08;;;9.80;99.90;;;;;;5069470;28;20044;-85
2023/03/31 08:28:56;;;;;;;11.48;2.85;;;10.20;99.90;;;;;;5069828;28;20127;-85
2023/03/31 08:31:22;;;;;;;5.35;1.90;;;11.90;99.90;;;;;;5067170;28;20469;-85
2023/03/31 08:33:49;;;;;;;5.30;1.73;;;;;;;;;;5068206;28;20087;-85
2023/03/31 08:36:15;;;;;;;5.72;1.77;;;9.80;99.90;;;;;;5049781;28;20044;-85
2023/03/31 08:38:45;;;;;;;7.97;2.45;;;9.70;99.90;;;;;;5065421;28;20040;-84
2023/03/31 08:41:41;;;;;;;7.93;2.17;;;10.40;99.90;;;;;;5063985;28;20092;-83
2023/03/31 08:44:20;;;;;;;6.70;2.00;;;9.80;99.90;;;;;;5052585;28;20114;-85
2023/03/31 08:46:47;;;;;;;7.13;1.95;;;10.20;99.90;;;;;;5062609;28;20056;-83
2023/03/31 08:49:17;;;;;;;8.75;2.38;;;9.90;99.90;;;;;;5069477;28;20082;-83
2023/03/31 08:51:56;;;;;;;7.97;2.00;;;9.90;99.90;;;;;;5070138;28;20449;-84
2023/03/31 08:54:42;;;;;;;7.28;2.30;;;9.80;99.90;;;;;;5046494;28;20099;-85
2023/03/31 08:57:30;;;;;;;9.30;2.58;;;9.90;99.90;;;;;;4361661;28;10001192;-84
2023/03/31 09:00:05;;;;;;;10.35;2.88;;;9.90;99.90;;;;;;5063017;28;21144;-83
2023/03/31 09:02:51;;;;;;;8.07;2.65;;;10.00;99.90;;;;;;5068699;28;20040;-84
2023/03/31 09:05:44;;;;;;;7.53;2.38;;;9.10;99.90;;;;;;5060123;28;20045;-83
2023/03/31 09:08:36;;;;;;;8.00;2.05;;;10.10;99.90;;;;;;5050505;28;20175;-83
2023/03/31 09:11:12;;;;;;;8.27;2.55;;;10.10;99.90;;;;;;5048346;28;20477;-84
2023/03/31 09:14:02;;;;;;;3.67;2.33;;;10.00;99.90;;;;;;5067334;28;20500;-83
2023/03/31 09:16:55;;;;;;;6.88;2.55;;;10.20;99.90;;;;;;5062103;28;20123;-83
2023/03/31 09:19:42;;;;;;;5.32;1.98;;;10.20;99.90;;;;;;5041921;28;20454;-84
2023/03/31 09:22:16;;;;;;;12.57;2.70;;;10.20;99.90;;;;;;5066422;28;20455;-82
2023/03/31 09:25:03;;;;;;;11.38;2.75;;;11.10;99.90;;;;;;5062090;28;20041;-85
2023/03/31 09:27:33;;;;;;;7.45;2.30;;;10.20;99.90;;;;;;5064004;28;20036;-83
2023/03/31 09:30:21;;;;;;;6.97;2.33;;;11.80;99.90;;;;;;5049298;28;20036;-84
2023/03/31 09:32:51;;;;;;;11.27;2.95;;;9.50;99.90;;;;;;5058322;28;20039;-83
2023/03/31 09:35:24;;;;;;;8.02;2.60;;;10.40;99.90;;;;;;5044046;28;20134;-84
2023/03/31 09:37:50;;;;;;;9.95;2.58;;;10.30;99.90;;;;;;5053579;28;20465;-84
2023/03/31 09:40:25;;;;;;;10.00;2.78;;;11.80;99.90;;;;;;5051944;28;20050;-84
2023/03/31 09:43:03;;;;;;;7.05;2.35;;;13.10;99.90;;;;;;5035038;28;20040;-83
2023/03/31 09:45:30;;;;;;;8.50;2.70;;;12.40;99.90;;;;;;5058081;28;20495;-83
2023/03/31 09:48:17;;;;;;;10.38;2.75;;;10.50;99.90;;;;;;5035236;28;20044;-83
2023/03/31 09:50:51;;;;;;;8.23;2.45;;;10.60;99.90;;;;;;5065874;28;20032;-84
2023/03/31 09:53:26;;;;;;;8.13;2.60;;;10.60;99.90;;;;;;5072502;28;20036;-84
2023/03/31 09:55:55;;;;;;;8.68;3.25;;;10.60;99.90;;;;;;5053587;28;20036;-84
2023/03/31 09:58:23;;;;;;;6.20;2.60;;;12.70;99.90;;;;;;5052261;28;20141;-84
2023/03/31 10:01:05;;;;;;;5.78;2.38;;;13.20;99.90;;;;;;5068774;28;20048;-84
2023/03/31 10:03:35;;;;;;;7.07;2.78;;;10.70;99.90;;;;;;5069556;28;20832;-84
2023/03/31 10:06:08;;;;;;;7.50;3.25;;;13.10;99.90;;;;;;5070032;28;20036;-84
2023/03/31 10:08:38;;;;;;;7.63;2.17;;;10.80;99.90;;;;;;5069061;28;20048;-85
2023/03/31 10:11:05;;;;;;;6.60;2.33;;;12.50;99.90;;;;;;5050865;28;20498;-84
2023/03/31 10:13:47;;;;;;;5.55;2.08;;;10.80;99.90;;;;;;5068955;28;20527;-84
2023/03/31 10:16:27;;;;;;;6.88;2.30;;;10.70;99.90;;;;;;5067424;28;20040;-84
2023/03/31 10:18:53;;;;;;;10.30;2.53;;;10.60;99.90;;;;;;5046516;28;20072;-84
2023/03/31 10:21:24;;;;;;;6.55;2.40;;;10.70;99.90;;;;;;5051493;28;20067;-85
2023/03/31 10:23:51;;;;;;;6.78;2.75;;;12.90;99.90;;;;;;5051278;28;20037;-85
2023/03/31 10:26:39;;;;;;;7.35;2.78;;;10.70;99.90;;;;;;5067934;28;20036;-84
2023/03/31 10:29:21;;;;;;;6.18;2.25;;;10.70;99.90;;;;;;5053675;28;20044;-84
2023/03/31 10:31:47;;;;;;;7.45;1.90;;;12.60;99.90;;;;;;5050829;28;20040;-84
2023/03/31 10:34:18;;;;;;;7.28;2.20;;;11.20;99.90;;;;;;5067698;28;20032;-84
2023/03/31 10:36:53;;;;;;;3.13;1.98;;;13.00;99.90;;;;;;5046158;28;20044;-84
2023/03/31 10:39:24;;;;;;;5.40;2.42;;;10.80;99.90;;;;;;5044479;28;20088;-85
2023/03/31 10:41:51;;;;;;;6.70;2.05;;;10.90;99.90;;;;;;5069119;28;20044;-85
2023/03/31 10:44:37;;;;;;;6.10;1.65;;;10.90;99.90;;;;;;5067127;28;20075;-84
2023/03/31 10:47:18;;;;;;;5.97;2.00;;;11.00;99.90;;;;;;5067894;28;20039;-85
2023/03/31 10:49:48;;;;;;;6.82;1.80;;;13.10;99.90;;;;;;5051456;28;20050;-84
2023/03/31 10:52:18;;;;;;;3.92;1.58;;;13.30;99.90;;;;;;5059616;28;20488;-85
2023/03/31 10:54:58;;;;;;;6.18;2.10;;;13.60;99.90;;;;;;5063947;28;20047;-84
2023/03/31 10:57:52;;;;;;;5.13;1.73;;;11.20;99.90;;;;;;5044355;28;20048;-84
2023/03/31 11:00:31;;;;;;;7.57;2.80;;;13.30;99.90;;;;;;5066507;28;20036;-83
2023/03/31 11:03:28;;;;;;;5.88;2.20;;;11.40;99.90;;;;;;5070215;28;20340;-84
2023/03/31 11:05:57;;;;;;;6.00;2.60;;;10.50;99.90;;;;;;5068004;28;20120;-85
2023/03/31 11:08:44;;;;;;;7.85;2.60;;;11.50;99.90;;;;;;5047796;28;20501;-84
2023/03/31 11:11:22;;;;;;;8.15;2.78;;;11.50;99.90;;;;;;5064261;28;20053;-84
2023/03/31 11:13:55;;;;;;;8.95;2.65;;;11.60;99.90;;;;;;5050659;28;20043;-85
2023/03/31 11:16:41;;;;;;;9.27;2.28;;;12.50;99.90;;;;;;5060606;28;20131;-85
2023/03/31 11:19:40;;;;;;;8.60;2.10;;;11.70;99.90;;;;;;5066473;28;20036;-85
2023/03/31 11:22:20;;;;;;;6.03;2.22;;;11.80;99.90;;;;;;5067120;28;20064;-84
2023/03/31 11:25:22;;;;;;;7.13;2.47;;;13.80;99.90;;;;;;5050661;28;20033;-84
2023/03/31 11:27:52;;;;;;;8.73;2.38;;;11.90;99.90;;;;;;5041124;28;20047;-85
2023/03/31 11:30:29;;;;;;;8.95;2.10;;;12.80;99.90;;;;;;5042649;28;20124;-84
2023/03/31 11:33:28;;;;;;;12.23;2.58;;;11.90;99.90;;;;;;5067088;28;20098;-84
2023/03/31 11:36:12;;;;;;;7.43;3.08;;;12.00;99.90;;;;;;5068366;28;20049;-85
2023/03/31 11:38:41;;;;;;;5.35;2.17;;;12.00;99.90;;;;;;5050876;28;20036;-84
2023/03/31 11:41:15;;;;;;;7.10;1.85;;;11.90;99.90;;;;;;5064667;28;20059;-84
2023/03/31 11:43:50;;;;;;;7.10;2.08;;;12.00;99.90;;;;;;5061766;28;20503;-84
2023/03/31 11:46:18;;;;;;;8.45;2.35;;;13.90;99.90;;;;;;5058350;28;20037;-84
2023/03/31 11:49:04;;;;;;;10.57;2.85;;;11.90;99.90;;;;;;5049900;28;20067;-82
2023/03/31 11:51:52;;;;;;;11.18;2.45;;;11.90;99.90;;;;;;5058811;28;20448;-83
2023/03/31 11:54:41;;;;;;;8.27;1.83;;;13.40;99.90;;;;;;5037070;28;20084;-84
2023/03/31 11:57:20;;;;;;;8.90;2.42;;;11.80;99.90;;;;;;5046079;28;20999;-84
2023/03/31 11:59:54;;;;;;;8.95;3.10;;;13.80;99.90;;;;;;5060628;28;20116;-83
2023/03/31 12:02:37;;;;;;;9.70;2.80;;;11.60;99.90;;;;;;5086590;28;20037;-84
2023/03/31 12:05:07;;;;;;;6.95;2.40;;;11.60;99.90;;;;;;5044896;28;20480;-84
2023/03/31 12:07:47;;;;;;;6.45;2.30;;;11.50;99.90;;;;;;5066721;28;20071;-84
2023/03/31 12:10:20;;;;;;;9.18;2.58;;;11.50;99.90;;;;;;5056475;28;20045;-84
2023/03/31 12:12:55;;;;;;;6.35;2.10;;;11.50;99.90;;;;;;5066194;28;20040;-84
2023/03/31 12:15:23;;;;;;;7.32;1.95;;;11.50;99.90;;;;;;5058464;28;20383;-83
2023/03/31 12:17:59;;;;;;;8.45;1.90;;;11.60;99.90;;;;;;5065653;28;20058;-83
2023/03/31 12:20:36;;;;;;;7.95;1.92;;;11.60;99.90;;;;;;5062582;28;20033;-85
2023/03/31 12:23:08;;;;;;;6.05;1.75;;;11.60;99.90;;;;;;5066714;28;20491;-85
2023/03/31 12:25:54;;;;;;;9.57;1.90;;;11.70;99.90;;;;;;5065546;28;20076;-84
2023/03/31 12:28:21;;;;;;;7.40;1.70;;;12.80;99.90;;;;;;5053284;28;20109;-84
2023/03/31 12:30:48;;;;;;;11.50;2.70;;;11.70;99.90;;;;;;5064755;28;20443;-83
2023/03/31 12:33:30;;;;;;;7.75;2.42;;;11.80;99.90;;;;;;5064221;28;20049;-84
2023/03/31 12:36:14;;;;;;;11.57;2.63;;;13.20;99.90;;;;;;5049487;28;20137;-83
2023/03/31 12:39:24;;;;;;;7.55;2.25;;;13.10;99.90;;;;;;5064429;28;20037;-82
2023/03/31 12:42:22;;;;;;;16.20;3.17;;;11.90;99.90;;;;;;5023302;28;20045;-83
2023/03/31 12:45:27;;;;;;;7.05;2.20;;;12.00;99.90;;;;;;5006785;28;20481;-83
2023/03/31 12:48:13;;;;;;;10.27;2.95;;;12.10;99.90;;;;;;4986842;28;20324;-83
2023/03/31 12:51:08;;;;;;;7.50;2.08;;;12.20;99.90;;;;;;5061011;28;20059;-85
2023/03/31 12:53:53;;;;;;;8.18;2.70;;;12.20;99.90;;;;;;5060458;28;20334;-85
2023/03/31 12:56:20;;;;;;;12.65;2.72;;;12.20;99.90;;;;;;5051088;28;20439;-85
2023/03/31 12:58:46;;;;;;;8.45;2.47;;;12.20;99.90;;;;;;5064066;28;20123;-85
2023/03/31 13:01:15;;;;;;;8.95;2.08;;;12.20;99.90;;;;;;5068672;28;20052;-86
2023/03/31 13:03:50;;;;;;;9.10;2.50;;;12.30;99.90;;;;;;5067583;28;20127;-85
2023/03/31 13:06:27;;;;;;;7.28;2.25;;;12.30;99.90;;;;;;5052098;28;20446;-86
2023/03/31 13:09:31;;;;;;;9.13;2.22;;;12.30;99.90;;;;;;5052399;28;20040;-85
2023/03/31 13:11:57;;;;;;;11.35;2.13;;;12.30;99.90;;;;;;5066492;28;20080;-85
2023/03/31 13:14:34;;;;;;;15.30;2.63;;;12.70;99.90;;;;;;5068512;28;20618;-84
2023/03/31 13:17:21;;;;;;;9.70;1.98;;;12.50;99.90;;;;;;5068271;28;20669;-85
2023/03/31 13:19:48;;;;;;;7.90;2.28;;;13.20;99.90;;;;;;5068976;28;20110;-85
2023/03/31 13:22:34;;;;;;;13.10;2.33;;;12.80;99.90;;;;;;5049579;28;20048;-85